Hauptseite
METAR-TAF:

METAR-TAF

Flughäfen :

Flugplatz Hamburg-Finkenwerder

Finkenwerder, Deutschland

Breite: 53-32N, Länge: 009-50E, Höhe: 5 m

Beobachtung

Neuester Wetterbericht von vor 39 Minuten, um 02:50 UTC
Wind 9 kt aus Ost
Temperatur 15°C
Luftfeuchtigkeit 67%
Luftdruck 1021 hPa
Sichtweite 10 km oder mehr

METAR: EDHI 250250Z AUTO 08009KT 9999 // NCD 15/09 Q1021

Zeit: 05:29 (03:29 UTC)

Prognose

Neuester Wetterbericht von vor 16 Stunden und 29 Minuten, um 11:00 UTC
Gültige Prognose vom 24 um 12 UTC bis 24 um 21 UTC
Wind 12 kt aus Ost
Sichtweite 10 km oder mehr
keine Wolken unter 1500 m und keine Kumulonimbus oder Gewitterwolken
Wahrscheinlichkeit 30% :
Zeitweise
vom 24 um 12 UTC bis 24 um 18 UTC
Wind 15 kt aus Ost, Böen bis zu 25 kt

TAF: EDHI 241100Z 2412/2421 08012KT CAVOK PROB30 TEMPO 2412/2418 08015G25KT

Wetterbeobachtungen und Prognosen von mehr als 4000 Flughäfen (METAR und TAF Bericht).

Die verfügbaren Stationen werden durch gelbe und rote Markierungen auf der Karte dargestellt.

Führen Sie die Maus auf sie, um den Namen der Station zu sehen.

Darauf klicken, um die Beobachtung von Wetterbeobachtungen und Prognosen zu sehen.

Um die Karte zu ändern : klicken Sie auf den grünen Tasten mit einem schwarzen Kreuz Zum Vergrößern, auf den grünen Button mit einem Gedankenstrich zu verkleinern, oder auf die grünen Pfeile für benachbarte Karten.


METAR-TAF: